Time;durP1;ratioP1;P1;durP2;ratioP2;P2;SDS_P1;SDS_P2;PMS_P1;PMS_P2;Temp;Humidity;BMP_temperature;BMP_pressure;BME280_temperature;BME280_humidity;BME280_pressure;Samples;Min_cycle;Max_cycle;Signal;HPM_P1;HPM_P2
2023/05/19 00:01:27;;;;;;;34.25;25.23;;;;;;;16.93;49.96;93886.75;5030054;28;20029;-92
2023/05/19 00:03:56;;;;;;;36.35;27.05;;;;;;;16.94;49.85;93879.31;5031570;28;20411;-91
2023/05/19 00:06:30;;;;;;;33.65;25.42;;;;;;;16.90;49.95;93873.34;5028159;28;20038;-92
2023/05/19 00:09:01;;;;;;;29.05;22.45;;;;;;;16.91;49.98;93870.13;5032069;28;20121;-91
2023/05/19 00:11:28;;;;;;;30.10;23.02;;;;;;;16.91;49.65;93866.63;5032530;28;20121;-89
2023/05/19 00:13:56;;;;;;;26.83;22.08;;;;;;;16.93;49.78;93878.56;5031263;28;20057;-89
2023/05/19 00:16:31;;;;;;;27.80;21.40;;;;;;;16.92;50.00;93870.88;5032224;28;20050;-90
2023/05/19 00:18:58;;;;;;;27.27;19.70;;;;;;;16.94;49.90;93874.59;5023505;23;20025;-90
2023/05/19 00:21:33;;;;;;;30.20;22.98;;;;;;;16.92;50.00;93870.88;4989220;28;20041;-90
2023/05/19 00:23:58;;;;;;;26.23;20.70;;;;;;;16.92;50.34;93871.59;5030904;28;20018;-91
2023/05/19 00:26:25;;;;;;;29.30;20.92;;;;;;;16.88;49.79;93876.56;5072464;23;20009;-89
2023/05/19 00:28:58;;;;;;;27.60;22.15;;;;;;;16.90;49.95;93867.88;5035484;28;20041;-89
2023/05/19 00:31:27;;;;;;;29.02;21.25;;;;;;;16.88;50.23;93867.63;5052071;22;20080;-89
2023/05/19 00:33:52;;;;;;;26.75;20.80;;;;;;;16.90;49.93;93867.88;5073888;28;20164;-89
2023/05/19 00:36:24;;;;;;;25.25;20.63;;;;;;;16.93;50.06;93862.19;5072869;28;20472;-89
2023/05/19 00:38:50;;;;;;;24.58;19.15;;;;;;;16.92;50.04;93860.69;5067721;22;20045;-89
2023/05/19 00:41:16;;;;;;;26.20;21.45;;;;;;;16.87;50.38;93858.69;5006915;22;20077;-89
2023/05/19 00:43:43;;;;;;;26.30;21.10;;;;;;;16.90;50.02;93862.41;5030739;23;20037;-89
2023/05/19 00:48:37;;;;;;;34.33;26.90;;;;;;;16.91;49.92;93864.66;5051584;28;20045;-89
2023/05/19 00:51:03;;;;;;;43.85;32.47;;;;;;;16.93;49.70;93861.44;5048488;23;20063;-91
2023/05/19 00:53:30;;;;;;;38.00;27.40;;;;;;;16.86;49.62;93859.94;5057810;28;20109;-88
2023/05/19 00:55:56;;;;;;;35.78;28.63;;;;;;;16.93;49.94;93861.44;5046004;28;20033;-92
2023/05/19 00:58:22;;;;;;;37.10;29.25;;;;;;;16.92;49.75;93855.22;5049596;28;20045;-91
2023/05/19 01:00:51;;;;;;;35.80;25.30;;;;;;;16.87;49.88;93852.50;5064794;28;20075;-90
2023/05/19 01:03:19;;;;;;;37.35;25.42;;;;;;;16.92;49.64;93849.00;5090165;28;20024;-95
2023/05/19 01:05:44;;;;;;;30.90;24.08;;;;;;;16.90;49.95;93849.50;5067643;28;20032;-89
2023/05/19 01:08:25;;;;;;;32.08;22.20;;;;;;;16.93;50.19;93845.78;5052062;28;20041;-89
2023/05/19 01:10:51;;;;;;;27.42;22.95;;;;;;;16.91;49.65;93852.97;5076401;28;20612;-89
2023/05/19 01:13:16;;;;;;;27.52;22.05;;;;;;;16.92;50.00;93846.28;5037092;22;20058;-92
2023/05/19 01:16:01;;;;;;;27.90;22.10;;;;;;;16.90;49.92;93848.75;5047880;22;20053;-91
2023/05/19 01:19:04;;;;;;;25.00;21.25;;;;;;;16.86;49.96;93840.06;5033507;28;20037;-92
2023/05/19 01:22:11;;;;;;;26.42;21.58;;;;;;;16.81;49.99;93841.53;5052369;28;20025;-90
2023/05/19 01:24:59;;;;;;;27.70;21.77;;;;;;;16.84;50.13;93848.00;5057194;28;20041;-87
2023/05/19 01:27:42;;;;;;;25.52;21.73;;;;;;;16.79;50.41;93841.28;5059664;28;20029;-92
2023/05/19 01:30:24;;;;;;;29.02;22.13;;;;;;;16.77;50.45;93846.47;5056049;28;20048;-89
2023/05/19 01:32:56;;;;;;;29.67;22.38;;;;;;;16.84;50.35;93837.84;5058743;28;20051;-90
2023/05/19 01:35:23;;;;;;;28.85;22.48;;;;;;;16.86;50.32;93838.09;5054608;28;20056;-90
2023/05/19 01:37:48;;;;;;;32.13;21.85;;;;;;;16.89;49.86;93836.38;5045141;28;20104;-89
2023/05/19 01:40:14;;;;;;;31.27;22.52;;;;;;;16.87;50.14;93839.59;5046527;28;20051;-89
2023/05/19 01:42:45;;;;;;;33.47;25.73;;;;;;;16.89;49.92;93839.09;5029561;28;20045;-91
2023/05/19 01:45:11;;;;;;;35.65;26.80;;;;;;;16.87;49.87;93831.41;5049097;28;20072;-89
2023/05/19 01:47:46;;;;;;;38.03;29.83;;;;;;;16.85;49.92;93831.13;5065824;28;20431;-89
2023/05/19 01:50:11;;;;;;;35.90;28.75;;;;;;;16.85;49.92;93828.41;5038822;22;20501;-92
2023/05/19 01:52:37;;;;;;;33.55;26.60;;;;;;;16.83;50.06;93824.66;4990943;28;20041;-90
2023/05/19 01:55:04;;;;;;;33.65;25.77;;;;;;;16.83;50.26;93825.41;5005826;28;20039;-88
2023/05/19 01:57:41;;;;;;;30.85;24.60;;;;;;;16.87;50.05;93825.94;5005995;28;20092;-89
2023/05/19 02:00:09;;;;;;;32.38;25.63;;;;;;;16.83;50.23;93819.94;5015618;28;20065;-89
2023/05/19 02:02:57;;;;;;;36.47;24.95;;;;;;;16.84;49.96;93816.00;5022609;28;20030;-90
2023/05/19 02:05:30;;;;;;;30.45;22.92;;;;;;;16.89;50.13;93825.44;4999475;28;20049;-92
2023/05/19 02:08:00;;;;;;;29.40;22.30;;;;;;;16.89;50.24;93823.44;4986871;28;20486;-93
2023/05/19 02:10:31;;;;;;;35.90;23.57;;;;;;;16.84;49.98;93821.44;4985033;28;20049;-89
2023/05/19 02:12:57;;;;;;;;;;;;;;;16.82;49.98;93821.19;5003590;28;20272;-86
2023/05/19 02:15:28;;;;;;;32.42;24.02;;;;;;;16.86;49.99;93812.78;5002813;28;20411;-91
2023/05/19 02:17:54;;;;;;;31.35;23.50;;;;;;;16.84;49.96;93802.34;5001358;28;20041;-90
2023/05/19 02:20:21;;;;;;;28.23;22.45;;;;;;;16.87;49.81;93803.34;5001266;28;20077;-90
2023/05/19 02:22:47;;;;;;;30.63;23.02;;;;;;;16.83;50.10;93808.28;5002940;28;20095;-93
2023/05/19 02:25:13;;;;;;;27.92;22.88;;;;;;;16.80;50.13;93807.28;5001523;28;20038;-92
2023/05/19 02:27:38;;;;;;;28.88;22.35;;;;;;;16.83;50.07;93813.75;4985651;28;20093;-88
2023/05/19 02:30:05;;;;;;;29.67;22.27;;;;;;;16.81;50.14;93805.28;5002073;28;20038;-88
2023/05/19 02:32:31;;;;;;;30.70;23.15;;;;;;;16.84;49.77;93799.59;5002410;28;20045;-93
2023/05/19 02:34:56;;;;;;;26.42;21.30;;;;;;;16.87;50.13;93798.63;4986289;28;20038;-89
2023/05/19 02:37:27;;;;;;;28.95;23.77;;;;;;;16.86;50.30;93799.88;4984895;28;20428;-92
2023/05/19 02:39:52;;;;;;;27.20;22.23;;;;;;;16.86;50.02;93786.22;5002699;28;20076;-88
2023/05/19 02:42:18;;;;;;;30.67;22.02;;;;;;;16.83;50.07;93798.13;5003508;28;20528;-91
2023/05/19 02:44:43;;;;;;;28.30;22.67;;;;;;;16.84;50.18;93787.94;5001271;28;20103;-91
2023/05/19 02:47:09;;;;;;;28.10;23.08;;;;;;;16.82;50.32;93790.41;4987183;28;20057;-93
2023/05/19 02:49:34;;;;;;;28.25;21.65;;;;;;;16.80;50.42;93790.91;5005048;28;20034;-90
2023/05/19 02:52:01;;;;;;;27.92;22.30;;;;;;;16.84;50.21;93782.47;4989076;28;20045;-92
2023/05/19 02:54:29;;;;;;;25.33;20.55;;;;;;;16.81;49.84;93786.94;5005238;28;20897;-92
2023/05/19 02:56:55;;;;;;;28.95;22.63;;;;;;;16.82;50.05;93777.50;5004049;28;20052;-90
2023/05/19 02:59:20;;;;;;;28.60;22.10;;;;;;;16.77;50.10;93775.50;5004105;28;20034;-93
2023/05/19 03:01:46;;;;;;;28.45;22.02;;;;;;;16.77;50.22;93781.69;4987975;28;20089;-91
2023/05/19 03:04:12;;;;;;;25.73;21.42;;;;;;;16.73;50.26;93780.44;4985662;28;20034;-93
2023/05/19 03:06:38;;;;;;;30.65;22.58;;;;;;;16.82;50.28;93780.22;4986832;28;20053;-93
2023/05/19 03:09:06;;;;;;;26.85;22.00;;;;;;;16.86;49.97;93785.47;4985970;28;20501;-91
2023/05/19 03:11:31;;;;;;;27.58;21.85;;;;;;;16.82;50.01;93776.75;4988453;28;20108;-93
2023/05/19 03:13:57;;;;;;;25.52;21.08;;;;;;;16.83;49.74;93776.28;4993571;28;20099;-89
2023/05/19 03:16:23;;;;;;;28.50;22.15;;;;;;;16.90;49.61;93788.69;5010291;28;20050;-89
2023/05/19 03:18:49;;;;;;;26.10;22.88;;;;;;;16.83;49.96;93783.72;4987460;28;20046;-90
2023/05/19 03:21:15;;;;;;;27.05;20.98;;;;;;;16.82;50.01;93793.13;4988166;28;20227;-89
2023/05/19 03:23:40;;;;;;;25.77;21.60;;;;;;;16.79;49.87;93789.41;5004399;28;20049;-92
2023/05/19 03:26:06;;;;;;;25.65;21.95;;;;;;;16.79;50.32;93790.16;5003050;28;20037;-91
2023/05/19 03:28:31;;;;;;;25.90;21.67;;;;;;;16.79;50.26;93789.41;5003147;28;20045;-89
2023/05/19 03:30:56;;;;;;;27.50;21.70;;;;;;;16.82;50.19;93785.69;4987632;28;20048;-90
2023/05/19 03:33:22;;;;;;;29.65;22.67;;;;;;;16.79;49.99;93787.41;5005145;28;20045;-87
2023/05/19 03:35:48;;;;;;;28.63;20.65;;;;;;;16.86;49.92;93788.19;4988947;28;20057;-90
2023/05/19 03:38:13;;;;;;;28.20;21.60;;;;;;;16.80;50.02;93782.72;5009532;28;20077;-89
2023/05/19 03:40:40;;;;;;;24.85;20.48;;;;;;;16.83;50.18;93789.19;5012565;28;20037;-88
2023/05/19 03:43:06;;;;;;;28.25;21.50;;;;;;;16.82;50.17;93780.22;4986468;28;20053;-88
2023/05/19 03:45:31;;;;;;;26.25;20.70;;;;;;;16.75;50.12;93780.69;4987593;28;20042;-93
2023/05/19 03:47:57;;;;;;;26.75;21.35;;;;;;;16.74;50.32;93781.94;4987595;28;20049;-89
2023/05/19 03:50:22;;;;;;;27.77;22.23;;;;;;;16.80;50.05;93782.72;5003225;28;20157;-91
2023/05/19 03:52:48;;;;;;;26.60;21.33;;;;;;;16.83;49.74;93780.97;5002996;28;20038;-90
2023/05/19 03:55:13;;;;;;;25.73;19.77;;;;;;;16.85;49.98;93781.25;4985442;28;20045;-90
2023/05/19 03:57:42;;;;;;;24.55;20.25;;;;;;;16.81;49.81;93786.19;4985806;28;20575;-93
2023/05/19 04:00:10;;;;;;;26.48;21.52;;;;;;;16.76;50.28;93788.41;4985045;28;20071;-92
2023/05/19 04:02:35;;;;;;;26.02;20.75;;;;;;;16.82;50.24;93791.16;5000816;28;20069;-91
2023/05/19 04:05:03;;;;;;;25.83;20.25;;;;;;;16.77;50.23;93784.44;4984790;28;20076;-89
2023/05/19 04:07:29;;;;;;;27.80;21.13;;;;;;;16.82;49.94;93779.50;5000518;28;20173;-91
2023/05/19 04:09:54;;;;;;;27.25;21.90;;;;;;;16.68;50.33;93779.16;5001127;28;20038;-93
2023/05/19 04:12:19;;;;;;;28.85;20.88;;;;;;;16.74;50.51;93777.22;5001737;28;20042;-91
2023/05/19 04:14:45;;;;;;;28.38;21.23;;;;;;;16.80;49.96;93779.97;5029720;28;20053;-93
2023/05/19 04:17:12;;;;;;;28.55;20.98;;;;;;;16.77;50.32;93789.16;4997942;28;20062;-93
2023/05/19 04:19:38;;;;;;;25.25;19.88;;;;;;;16.75;50.10;93780.69;5014503;28;20096;-88
2023/05/19 04:22:04;;;;;;;22.95;20.40;;;;;;;16.73;50.11;93786.66;5018818;28;20049;-88
2023/05/19 04:24:36;;;;;;;26.20;20.42;;;;;;;16.71;50.18;93772.00;5003299;28;20056;-90
2023/05/19 04:27:03;;;;;;;25.33;21.55;;;;;;;16.73;50.13;93783.91;5002013;28;20057;-89
2023/05/19 04:29:29;;;;;;;25.27;20.83;;;;;;;16.80;50.18;93779.97;5018073;28;20041;-92
2023/05/19 04:31:56;;;;;;;23.70;19.27;;;;;;;16.80;50.14;93785.44;4983038;28;20043;-91
2023/05/19 04:34:21;;;;;;;21.35;19.15;;;;;;;16.74;50.29;93782.69;5015734;28;20381;-88
2023/05/19 04:36:46;;;;;;;25.23;20.77;;;;;;;16.81;50.18;93791.66;5003478;28;20045;-92
2023/05/19 04:39:13;;;;;;;24.13;20.48;;;;;;;16.71;50.31;93782.91;5019346;28;20046;-93
2023/05/19 04:41:39;;;;;;;26.40;20.90;;;;;;;16.73;50.12;93789.38;5002313;28;20034;-92
2023/05/19 04:44:08;;;;;;;26.88;20.95;;;;;;;16.76;50.27;93782.94;5001461;28;20050;-87
2023/05/19 04:46:33;;;;;;;28.48;20.58;;;;;;;16.76;50.21;93785.66;5019567;28;20121;-90
2023/05/19 04:49:00;;;;;;;24.90;19.00;;;;;;;16.82;50.13;93782.97;5002068;28;20069;-91
2023/05/19 04:51:26;;;;;;;24.08;20.45;;;;;;;16.85;50.00;93778.50;4985535;28;20042;-91
2023/05/19 04:53:54;;;;;;;26.70;21.58;;;;;;;16.78;50.33;93788.66;4983822;28;20031;-89
2023/05/19 04:56:19;;;;;;;26.23;20.88;;;;;;;16.77;50.17;93773.50;5013559;28;20041;-92
2023/05/19 04:58:45;;;;;;;26.25;21.35;;;;;;;16.74;50.15;93781.94;5011903;28;20034;-91
2023/05/19 05:01:12;;;;;;;23.70;20.42;;;;;;;16.77;49.95;93778.97;5010221;28;20046;-92
2023/05/19 05:03:38;;;;;;;23.75;20.15;;;;;;;16.73;49.96;93777.72;4996042;28;20163;-87
2023/05/19 05:06:03;;;;;;;22.58;19.27;;;;;;;16.79;50.15;93775.75;5012004;28;20080;-88
2023/05/19 05:08:29;;;;;;;24.98;19.38;;;;;;;16.81;50.09;93770.56;4994570;28;20066;-94
2023/05/19 05:10:55;;;;;;;27.98;19.75;;;;;;;16.70;50.25;93773.22;4978863;28;20472;-91
2023/05/19 05:13:22;;;;;;;24.27;21.08;;;;;;;16.82;49.96;93774.78;4993737;28;20042;-91
2023/05/19 05:15:47;;;;;;;25.90;20.73;;;;;;;16.82;49.85;93769.31;4995187;28;20065;-86
2023/05/19 05:18:14;;;;;;;25.15;20.00;;;;;;;16.78;50.09;93774.25;4994100;28;20076;-90
2023/05/19 05:20:41;;;;;;;25.88;18.20;;;;;;;16.78;50.40;93766.06;4978160;28;20038;-90
2023/05/19 05:23:08;;;;;;;24.88;20.58;;;;;;;16.72;50.22;93768.03;4989819;28;20038;-89
2023/05/19 05:25:34;;;;;;;23.13;18.27;;;;;;;16.79;50.25;93771.03;4996274;28;20037;-89
2023/05/19 05:28:03;;;;;;;28.85;20.35;;;;;;;16.76;50.40;93772.03;4994760;28;20129;-89
2023/05/19 05:30:29;;;;;;;29.63;18.38;;;;;;;16.74;50.30;93779.94;4994668;28;20115;-92
2023/05/19 05:32:54;;;;;;;27.70;20.15;;;;;;;16.82;49.84;93771.28;5011296;28;20504;-88
2023/05/19 05:35:22;;;;;;;24.45;20.08;;;;;;;16.81;50.27;93776.00;4978119;28;20088;-88
2023/05/19 05:37:47;;;;;;;27.88;20.80;;;;;;;16.83;50.21;93781.72;4995424;28;20100;-88
2023/05/19 05:40:13;;;;;;;27.20;20.30;;;;;;;16.83;50.13;93775.53;4993368;28;20049;-88
2023/05/19 05:42:38;;;;;;;27.83;21.17;;;;;;;16.92;49.92;93770.56;5010046;28;20048;-84
2023/05/19 05:45:04;;;;;;;24.00;19.25;;;;;;;16.88;49.93;93766.59;5009628;28;20042;-86
2023/05/19 05:47:30;;;;;;;26.25;20.38;;;;;;;16.82;49.79;93774.03;4979620;28;20038;-93
2023/05/19 05:49:56;;;;;;;24.92;20.15;;;;;;;16.93;49.91;93765.84;4979264;28;20049;-90
2023/05/19 05:52:22;;;;;;;27.27;18.48;;;;;;;16.93;50.01;93779.50;4995778;28;20037;-92
2023/05/19 05:54:48;;;;;;;30.17;20.50;;;;;;;16.94;49.83;93779.03;4995646;28;20091;-92
2023/05/19 05:57:14;;;;;;;26.98;20.60;;;;;;;16.88;50.08;93774.81;4991167;28;20038;-86
2023/05/19 05:59:39;;;;;;;36.08;23.10;;;;;;;16.96;49.74;93771.09;5011898;28;20033;-92
2023/05/19 06:02:05;;;;;;;50.60;29.60;;;;;;;16.92;50.18;93772.56;4994964;28;20046;-92
2023/05/19 06:04:31;;;;;;;47.45;26.02;;;;;;;16.94;50.07;93773.56;4996715;28;20045;-91
2023/05/19 06:06:59;;;;;;;67.55;29.20;;;;;;;16.94;49.70;93778.28;4996591;28;20030;-88
2023/05/19 06:09:26;;;;;;;74.68;30.42;;;;;;;16.92;49.71;93780.75;4979049;28;20497;-86
2023/05/19 06:11:52;;;;;;;64.82;27.48;;;;;;;16.87;49.95;93781.50;5003738;28;20046;-89
2023/05/19 06:14:17;;;;;;;89.90;31.15;;;;;;;16.87;50.22;93778.78;4996637;28;20076;-92
2023/05/19 06:16:43;;;;;;;80.80;32.83;;;;;;;16.91;49.98;93773.78;4997202;28;20053;-88
2023/05/19 06:19:08;;;;;;;60.15;28.27;;;;;;;16.90;49.68;93775.03;4995618;28;20049;-87
2023/05/19 06:21:34;;;;;;;82.60;30.73;;;;;;;16.90;50.12;93773.03;4998135;28;20038;-88
2023/05/19 06:23:59;;;;;;;67.28;27.90;;;;;;;16.89;49.97;93782.47;5000132;28;20527;-91
2023/05/19 06:26:26;;;;;;;79.45;31.38;;;;;;;16.89;49.76;93782.47;4998032;28;20049;-88
2023/05/19 06:28:51;;;;;;;68.30;29.95;;;;;;;16.96;49.64;93776.53;4997727;28;20048;-91
2023/05/19 06:31:17;;;;;;;71.50;33.03;;;;;;;16.94;50.24;93770.81;5013443;28;20034;-87
2023/05/19 06:33:42;;;;;;;75.13;31.67;;;;;;;16.94;50.05;93772.81;5015269;28;20052;-90
2023/05/19 06:36:08;;;;;;;75.45;33.25;;;;;;;16.83;49.93;93773.53;4984672;28;20042;-91
2023/05/19 06:38:34;;;;;;;64.70;32.55;;;;;;;16.89;49.99;93789.94;5008281;28;20064;-92
2023/05/19 06:40:59;;;;;;;67.63;30.73;;;;;;;16.86;49.71;93777.28;5001647;28;20041;-88
2023/05/19 06:43:25;;;;;;;75.25;33.40;;;;;;;16.88;50.09;93775.53;5002463;28;20073;-89
2023/05/19 06:45:51;;;;;;;67.93;36.00;;;;;;;16.89;50.02;93779.75;5001259;28;20038;-94
2023/05/19 06:48:16;;;;;;;82.03;38.78;;;;;;;16.80;50.01;93785.44;4999098;28;20050;-92
2023/05/19 06:50:42;;;;;;;90.38;41.05;;;;;;;16.77;49.96;93786.41;5017729;28;20041;-90
2023/05/19 06:53:07;;;;;;;77.15;37.85;;;;;;;16.91;50.12;93790.91;4982502;28;20045;-91
2023/05/19 06:55:33;;;;;;;82.22;39.03;;;;;;;16.90;49.95;93788.69;5000380;28;20030;-89
2023/05/19 06:57:58;;;;;;;98.43;44.03;;;;;;;16.84;49.92;93780.50;4987197;28;20057;-86
2023/05/19 07:00:23;;;;;;;90.85;43.58;;;;;;;16.86;49.98;93786.22;4994462;28;20452;-91
2023/05/19 07:02:49;;;;;;;88.15;39.80;;;;;;;16.90;50.33;93786.69;4978448;28;20096;-92
2023/05/19 07:05:16;;;;;;;98.88;45.22;;;;;;;16.82;50.24;93788.44;4996405;28;20068;-87
2023/05/19 07:07:42;;;;;;;88.25;41.05;;;;;;;16.93;49.79;93783.00;5004931;28;20129;-90
2023/05/19 07:10:08;;;;;;;89.25;41.63;;;;;;;16.92;49.79;93778.00;4981988;28;20516;-86
2023/05/19 07:12:33;;;;;;;121.40;41.40;;;;;;;16.91;50.00;93776.53;4999728;28;20384;-91
2023/05/19 07:14:58;;;;;;;127.07;42.30;;;;;;;16.94;49.92;93772.81;5001844;28;20042;-92
2023/05/19 07:17:24;;;;;;;118.78;42.38;;;;;;;16.96;50.11;93771.09;4996281;28;20042;-90
2023/05/19 07:19:49;;;;;;;127.13;43.70;;;;;;;16.97;50.11;93772.56;4996570;28;20503;-91
2023/05/19 07:22:15;;;;;;;112.70;42.75;;;;;;;16.95;49.99;93766.13;5001162;28;20232;-86
2023/05/19 07:24:46;;;;;;;164.23;46.33;;;;;;;16.94;49.67;93773.56;4984868;28;20045;-88
2023/05/19 07:27:12;;;;;;;152.10;48.60;;;;;;;16.91;50.08;93766.34;5012534;22;20492;-86
2023/05/19 07:29:37;;;;;;;151.20;47.00;;;;;;;16.87;50.09;93762.38;5033093;28;20073;-92
2023/05/19 07:32:03;;;;;;;157.40;46.65;;;;;;;16.94;50.14;93759.91;5012367;28;20045;-93
2023/05/19 07:34:31;;;;;;;160.70;49.35;;;;;;;16.94;50.13;93759.91;5000727;28;20097;-88
2023/05/19 07:36:56;;;;;;;143.93;47.17;;;;;;;16.97;50.05;93750.72;5019216;28;20456;-86
2023/05/19 07:39:24;;;;;;;145.27;47.67;;;;;;;16.99;49.75;93745.53;5037219;28;20056;-91
2023/05/19 07:41:53;;;;;;;180.70;51.83;;;;;;;16.98;49.84;93751.47;5021986;28;20041;-89
2023/05/19 07:44:19;;;;;;;153.43;53.20;;;;;;;16.89;50.33;93751.72;5036281;28;20080;-88
2023/05/19 07:46:44;;;;;;;138.52;52.83;;;;;;;16.95;50.33;93753.22;5006826;28;20033;-88
2023/05/19 07:49:10;;;;;;;154.38;61.15;;;;;;;16.87;49.81;93752.22;5022591;28;20065;-89
2023/05/19 07:51:35;;;;;;;167.93;60.50;;;;;;;16.96;49.82;93751.22;5022670;28;20034;-89
2023/05/19 07:54:02;;;;;;;176.25;63.05;;;;;;;16.86;50.38;93764.38;5005771;28;20502;-90
2023/05/19 07:56:28;;;;;;;170.95;64.13;;;;;;;16.97;50.15;93763.63;5040502;28;20676;-90
2023/05/19 07:58:53;;;;;;;184.55;68.50;;;;;;;16.90;50.16;93764.84;5021576;28;20054;-88
2023/05/19 08:01:19;;;;;;;180.15;64.65;;;;;;;16.95;49.99;93758.66;5019368;28;20041;-90
2023/05/19 08:03:44;;;;;;;160.90;67.93;;;;;;;16.99;49.87;93755.69;5020543;28;20033;-87
2023/05/19 08:06:10;;;;;;;204.18;75.88;;;;;;;16.94;49.77;93756.44;5019715;28;20487;-89
2023/05/19 08:08:36;;;;;;;178.32;76.57;;;;;;;16.96;49.65;93759.41;5021655;28;20041;-90
2023/05/19 08:11:03;;;;;;;184.90;77.93;;;;;;;16.98;50.02;93756.94;5001625;28;20033;-89
2023/05/19 08:13:28;;;;;;;184.30;78.78;;;;;;;16.95;49.84;93747.75;5018157;28;20593;-88
2023/05/19 08:15:58;;;;;;;188.55;76.22;;;;;;;17.00;50.21;93751.72;5035463;28;20056;-89
2023/05/19 08:18:24;;;;;;;184.73;78.75;;;;;;;17.02;50.16;93743.78;5017774;28;20037;-91
2023/05/19 08:20:49;;;;;;;182.23;81.65;;;;;;;17.00;50.22;93740.81;5034348;28;20029;-89
2023/05/19 08:23:16;;;;;;;188.55;81.90;;;;;;;17.09;49.68;93744.06;5023816;28;20038;-87
2023/05/19 08:25:41;;;;;;;203.82;87.13;;;;;;;17.01;49.96;93743.03;5018434;28;20033;-92
2023/05/19 08:28:07;;;;;;;199.80;83.70;;;;;;;17.05;49.85;93738.09;4997716;28;20073;-90
2023/05/19 08:30:32;;;;;;;204.70;88.00;;;;;;;17.09;49.83;93738.59;5032508;28;20087;-94
2023/05/19 08:32:58;;;;;;;194.73;86.80;;;;;;;17.08;49.95;93730.91;5014485;28;20041;-90
2023/05/19 08:35:23;;;;;;;201.95;88.65;;;;;;;17.07;50.01;93726.69;5014227;28;20038;-90
2023/05/19 08:37:49;;;;;;;185.98;88.22;;;;;;;17.08;49.95;93736.38;5014130;28;20479;-90
2023/05/19 08:40:17;;;;;;;188.57;88.75;;;;;;;17.08;49.98;93728.16;5009609;28;20089;-93
2023/05/19 08:42:43;;;;;;;200.52;89.00;;;;;;;17.09;50.30;93727.69;5002615;28;20123;-93
2023/05/19 08:45:09;;;;;;;193.45;90.40;;;;;;;17.07;50.07;93729.41;5013041;28;20045;-89
2023/05/19 08:47:34;;;;;;;216.07;96.47;;;;;;;17.08;49.96;93728.16;4997717;28;20064;-91
2023/05/19 08:50:06;;;;;;;192.23;90.03;;;;;;;17.08;49.97;93728.91;4996900;28;20052;-91
2023/05/19 08:52:51;;;;;;;250.07;123.25;;;;;;;17.09;50.06;93724.94;4997090;28;20044;-93
2023/05/19 08:55:37;;;;;;;232.32;103.07;;;;;;;17.09;50.20;93730.41;4992639;28;20392;-92
2023/05/19 08:58:03;;;;;;;204.85;99.45;;;;;;;17.07;49.89;93729.41;5035311;28;20045;-93
2023/05/19 09:00:29;;;;;;;217.48;105.93;;;;;;;17.09;49.80;93724.19;5012496;28;20399;-92
2023/05/19 09:02:54;;;;;;;219.57;110.35;;;;;;;17.09;49.94;93713.28;4996375;28;20037;-91
2023/05/19 09:05:20;;;;;;;227.43;114.57;;;;;;;17.05;49.84;93716.25;5011884;28;20034;-90
2023/05/19 09:07:47;;;;;;;218.90;116.53;;;;;;;17.07;50.16;93715.75;5012182;28;20553;-91
2023/05/19 09:10:13;;;;;;;257.17;131.98;;;;;;;17.07;49.97;93711.03;4995993;28;20053;-93
2023/05/19 09:12:40;;;;;;;248.75;124.68;;;;;;;17.08;50.05;93719.97;5012803;28;20068;-92
2023/05/19 09:15:07;;;;;;;263.30;135.23;;;;;;;17.13;49.96;93719.97;5008131;28;20107;-92
2023/05/19 09:17:34;;;;;;;278.63;155.18;;;;;;;17.16;49.91;93714.75;5005029;28;20037;-92
2023/05/19 09:20:06;;;;;;;302.50;164.82;;;;;;;17.13;49.79;93719.22;4997319;28;20547;-91
2023/05/19 09:22:34;;;;;;;302.55;165.85;;;;;;;17.19;50.23;93703.59;5012691;28;20038;-91
2023/05/19 09:25:00;;;;;;;272.80;152.23;;;;;;;17.25;49.71;93704.34;4997795;28;20048;-92
2023/05/19 09:27:25;;;;;;;296.25;163.15;;;;;;;17.26;49.52;93705.84;4996162;28;20046;-92
2023/05/19 09:29:51;;;;;;;288.77;159.57;;;;;;;17.26;49.90;93705.09;4996309;28;20060;-92
2023/05/19 09:32:25;;;;;;;279.85;156.45;;;;;;;17.22;49.85;93713.53;5028109;28;20041;-91
2023/05/19 09:34:59;;;;;;;283.00;152.18;;;;;;;17.23;49.50;93709.56;4999628;28;20065;-92
2023/05/19 09:37:25;;;;;;;259.27;145.23;;;;;;;17.27;50.38;93701.88;5010284;28;20045;-92
2023/05/19 09:39:52;;;;;;;256.73;138.95;;;;;;;17.22;50.23;93696.38;4995869;28;20049;-90
2023/05/19 09:42:29;;;;;;;252.73;137.23;;;;;;;17.20;50.22;93696.13;4995256;28;20049;-92
2023/05/19 09:45:00;;;;;;;276.50;140.43;;;;;;;17.28;49.92;93691.69;4997040;28;20048;-91
2023/05/19 09:47:31;;;;;;;250.68;135.02;;;;;;;17.21;50.07;93697.63;4993538;28;20049;-88
2023/05/19 09:49:57;;;;;;;;;;;;;;;17.20;49.89;93688.69;5014913;28;20060;-93
2023/05/19 09:52:24;;;;;;;266.63;140.15;;;;;;;17.24;50.36;93685.72;5010765;28;19933;-92
2023/05/19 09:54:51;;;;;;;277.90;140.63;;;;;;;17.17;49.92;93680.72;4994717;28;20045;-93
2023/05/19 09:57:16;;;;;;;248.18;134.45;;;;;;;17.17;50.04;93684.22;5010882;28;20034;-93
2023/05/19 09:59:42;;;;;;;274.30;137.18;;;;;;;17.16;50.06;93679.25;5014167;28;20123;-92
2023/05/19 10:02:20;;;;;;;274.83;143.57;;;;;;;17.16;50.15;93680.00;4998264;28;20053;-92
2023/05/19 10:04:47;;;;;;;273.83;148.30;;;;;;;17.16;49.92;93681.97;5031073;28;20041;-95
2023/05/19 10:07:14;;;;;;;277.92;146.43;;;;;;;17.19;50.07;93670.81;5016423;28;20041;-94
2023/05/19 10:09:41;;;;;;;287.88;147.60;;;;;;;17.16;50.13;93668.31;4998325;28;20041;-93
2023/05/19 10:12:08;;;;;;;260.55;136.10;;;;;;;17.25;49.96;93676.28;4997695;28;20505;-92
2023/05/19 10:14:36;;;;;;;255.75;142.45;;;;;;;17.23;50.01;93673.28;5000083;28;20105;-92
2023/05/19 10:17:02;;;;;;;282.67;147.55;;;;;;;17.21;50.28;93665.59;5031270;28;20041;-91
2023/05/19 10:19:28;;;;;;;262.90;139.23;;;;;;;17.23;50.38;93662.38;5009252;28;20047;-94
2023/05/19 10:21:54;;;;;;;200.60;112.72;;;;;;;17.23;50.40;93667.84;5016204;28;20621;-93
2023/05/19 10:24:20;;;;;;;222.75;119.35;;;;;;;17.14;50.05;93664.09;5000633;28;20049;-93
2023/05/19 10:26:52;;;;;;;252.55;139.30;;;;;;;17.16;49.83;93666.31;5013930;28;20025;-92
2023/05/19 10:29:20;;;;;;;230.23;132.27;;;;;;;17.17;50.25;93672.53;4997446;28;20045;-94
2023/05/19 10:31:47;;;;;;;244.27;131.30;;;;;;;17.17;50.35;93675.28;4998709;28;20041;-92
2023/05/19 10:34:50;;;;;;;201.85;116.05;;;;;;;17.25;50.67;93663.38;4993668;28;20041;-94
2023/05/19 10:37:31;;;;;;;234.20;135.02;;;;;;;17.22;50.08;93664.34;4998225;28;20038;-93
2023/05/19 10:39:58;;;;;;;218.48;114.93;;;;;;;17.29;50.55;93661.13;5022991;28;20041;-93
2023/05/19 10:42:36;;;;;;;232.38;122.50;;;;;;;17.23;50.35;93654.91;4992846;28;20044;-93
2023/05/19 10:45:19;;;;;;;252.38;141.90;;;;;;;17.19;50.34;93651.69;5008773;28;20124;-92
2023/05/19 10:47:45;;;;;;;238.20;130.88;;;;;;;17.19;50.03;93661.88;5013537;28;20033;-92
2023/05/19 10:50:10;;;;;;;244.25;131.40;;;;;;;17.24;50.46;93656.41;4996512;28;20125;-92
2023/05/19 10:52:36;;;;;;;246.75;129.60;;;;;;;17.21;50.17;93665.59;4997324;28;20049;-93
2023/05/19 10:55:03;;;;;;;255.18;137.27;;;;;;;17.22;49.95;93658.16;4996146;28;20064;-93
2023/05/19 10:57:31;;;;;;;246.07;135.00;;;;;;;17.25;50.65;93666.09;4995989;28;20399;-92
2023/05/19 10:59:56;;;;;;;256.50;137.82;;;;;;;17.26;50.18;93653.94;4995662;28;20049;-92
2023/05/19 11:02:38;;;;;;;233.95;133.13;;;;;;;17.26;50.25;93664.09;4996190;28;20545;-94
2023/05/19 11:05:13;;;;;;;247.60;132.45;;;;;;;17.25;50.45;93654.41;4995221;28;20052;-93
2023/05/19 11:07:41;;;;;;;256.33;132.10;;;;;;;17.26;50.44;93659.38;4997204;28;20038;-91
2023/05/19 11:10:07;;;;;;;242.88;135.30;;;;;;;17.27;50.16;93665.59;4995691;28;20045;-93
2023/05/19 11:12:41;;;;;;;239.50;134.23;;;;;;;17.27;49.96;93662.88;4996784;28;20049;-93
2023/05/19 11:15:10;;;;;;;245.50;131.93;;;;;;;17.26;50.23;93655.91;4995939;28;20495;-93
2023/05/19 11:17:36;;;;;;;240.20;130.38;;;;;;;17.27;49.78;93660.13;4996804;28;20034;-93
2023/05/19 11:20:01;;;;;;;218.55;131.40;;;;;;;17.28;50.32;93661.63;4996670;28;20049;-94